Time;durP1;ratioP1;P1;durP2;ratioP2;P2;SDS_P1;SDS_P2;PMS_P1;PMS_P2;Temp;Humidity;BMP_temperature;BMP_pressure;BME280_temperature;BME280_humidity;BME280_pressure;Samples;Min_cycle;Max_cycle;Signal;HPM_P1;HPM_P2
2022/07/01 00:01:44;;;;;;;5.85;2.53;;;14.50;99.90;;;;;;5094698;28;20080;-72
2022/07/01 00:04:10;;;;;;;5.78;2.33;;;14.60;99.90;;;;;;5094379;28;20044;-73
2022/07/01 00:06:37;;;;;;;6.40;2.60;;;14.50;99.90;;;;;;5083825;28;20042;-72
2022/07/01 00:09:04;;;;;;;4.13;2.28;;;14.50;99.90;;;;;;5095779;28;20035;-73
2022/07/01 00:11:31;;;;;;;7.55;2.90;;;14.60;99.90;;;;;;5085957;28;20555;-72
2022/07/01 00:13:57;;;;;;;5.00;2.67;;;14.60;99.90;;;;;;5082663;28;20078;-73
2022/07/01 00:16:23;;;;;;;5.05;2.45;;;14.50;99.90;;;;;;5096860;28;20032;-73
2022/07/01 00:18:49;;;;;;;4.07;2.30;;;14.50;99.90;;;;;;5084614;28;20016;-74
2022/07/01 00:21:14;;;;;;;7.78;3.28;;;14.50;99.90;;;;;;5092114;28;20035;-73
2022/07/01 00:23:41;;;;;;;6.03;2.38;;;14.40;99.90;;;;;;5088781;28;20021;-73
2022/07/01 00:26:07;;;;;;;5.10;3.00;;;14.40;99.90;;;;;;5084088;28;20024;-73
2022/07/01 00:28:33;;;;;;;9.75;2.97;;;14.40;99.90;;;;;;5092884;28;20066;-73
2022/07/01 00:30:59;;;;;;;5.80;2.60;;;14.40;99.90;;;;;;5096332;28;20024;-73
2022/07/01 00:33:25;;;;;;;8.90;2.70;;;14.40;99.90;;;;;;5095477;28;20035;-73
2022/07/01 00:35:52;;;;;;;6.80;3.22;;;14.40;99.90;;;;;;5076453;28;20025;-74
2022/07/01 00:38:18;;;;;;;6.65;2.60;;;14.40;99.90;;;;;;5077224;28;20028;-73
2022/07/01 00:40:43;;;;;;;5.57;2.42;;;14.40;99.90;;;;;;5080951;28;20021;-73
2022/07/01 00:43:09;;;;;;;4.68;3.20;;;14.40;99.90;;;;;;5078325;28;20028;-72
2022/07/01 00:45:35;;;;;;;9.55;3.00;;;14.40;99.90;;;;;;5084274;28;20021;-72
2022/07/01 00:48:01;;;;;;;6.63;3.45;;;14.30;99.90;;;;;;5081927;28;20067;-73
2022/07/01 00:50:27;;;;;;;5.85;2.78;;;14.40;99.90;;;;;;5088134;28;20056;-73
2022/07/01 00:52:53;;;;;;;3.90;2.50;;;14.30;99.90;;;;;;5083559;28;20107;-73
2022/07/01 00:55:19;;;;;;;4.45;2.80;;;14.40;99.90;;;;;;5090802;28;20031;-73
2022/07/01 00:57:45;;;;;;;7.65;2.58;;;14.40;99.90;;;;;;5086755;28;20012;-73
2022/07/01 01:00:14;;;;;;;5.32;3.00;;;14.40;99.90;;;;;;5093146;28;20053;-73
2022/07/01 01:02:40;;;;;;;4.88;3.30;;;14.40;99.90;;;;;;5090850;28;20024;-73
2022/07/01 01:05:08;;;;;;;6.68;3.13;;;14.50;99.90;;;;;;5096768;28;20019;-72
2022/07/01 01:07:34;;;;;;;7.10;2.83;;;14.50;99.90;;;;;;5098780;28;20035;-72
2022/07/01 01:10:01;;;;;;;4.85;2.70;;;14.40;99.90;;;;;;5097577;28;20024;-72
2022/07/01 01:12:28;;;;;;;6.00;2.80;;;14.40;99.90;;;;;;5084258;28;20055;-72
2022/07/01 01:14:55;;;;;;;4.05;2.50;;;14.40;99.90;;;;;;5091853;28;20035;-73
2022/07/01 01:17:24;;;;;;;8.15;2.80;;;14.50;99.90;;;;;;5093608;28;20040;-73
2022/07/01 01:19:51;;;;;;;4.75;3.08;;;14.50;99.90;;;;;;5092695;28;20059;-73
2022/07/01 01:22:18;;;;;;;9.23;2.80;;;14.50;99.90;;;;;;5090060;28;20024;-73
2022/07/01 01:24:47;;;;;;;8.10;3.20;;;14.50;99.90;;;;;;5093806;28;20096;-73
2022/07/01 01:27:13;;;;;;;7.38;2.85;;;14.50;99.90;;;;;;5098652;28;20472;-73
2022/07/01 01:29:40;;;;;;;6.85;2.97;;;14.50;99.90;;;;;;5096598;28;20024;-73
2022/07/01 01:32:07;;;;;;;13.45;3.60;;;14.40;99.90;;;;;;5097776;28;20028;-73
2022/07/01 01:34:36;;;;;;;5.60;3.25;;;14.40;99.90;;;;;;5098194;28;20028;-73
2022/07/01 01:37:03;;;;;;;3.40;3.10;;;14.50;99.90;;;;;;5088576;28;20028;-73
2022/07/01 01:39:29;;;;;;;5.72;2.78;;;14.40;99.90;;;;;;5094597;28;20016;-73
2022/07/01 01:41:55;;;;;;;7.53;3.22;;;14.50;99.90;;;;;;5095830;28;20031;-73
2022/07/01 01:44:21;;;;;;;6.53;3.30;;;14.40;99.90;;;;;;5095786;28;20023;-73
2022/07/01 01:46:46;;;;;;;5.15;3.30;;;14.40;99.90;;;;;;5096274;28;20040;-73
2022/07/01 01:49:12;;;;;;;7.63;3.33;;;14.40;99.90;;;;;;5099334;28;20082;-73
2022/07/01 01:51:38;;;;;;;8.13;3.40;;;14.50;99.90;;;;;;5083740;28;20070;-72
2022/07/01 01:54:05;;;;;;;9.57;3.53;;;14.40;99.90;;;;;;5081268;28;20027;-73
2022/07/01 01:56:31;;;;;;;7.57;3.65;;;14.40;99.90;;;;;;5084255;28;20400;-72
2022/07/01 01:58:58;;;;;;;6.78;3.65;;;14.40;99.90;;;;;;5087538;28;20020;-73
2022/07/01 02:01:24;;;;;;;8.00;3.67;;;14.40;99.90;;;;;;5097339;28;20024;-73
2022/07/01 02:03:52;;;;;;;5.35;3.55;;;14.40;99.90;;;;;;5099900;28;20025;-73
2022/07/01 02:06:19;;;;;;;9.77;3.60;;;14.40;99.90;;;;;;5098931;28;20024;-73
2022/07/01 02:08:45;;;;;;;7.22;3.58;;;14.40;99.90;;;;;;5084033;28;20026;-74
2022/07/01 02:11:11;;;;;;;5.18;3.83;;;14.40;99.90;;;;;;5096064;28;20547;-73
2022/07/01 02:13:38;;;;;;;9.82;4.13;;;14.40;99.90;;;;;;5098781;28;20062;-73
2022/07/01 02:16:04;;;;;;;10.55;4.38;;;14.40;99.90;;;;;;5088129;28;20025;-73
2022/07/01 02:18:32;;;;;;;9.27;4.28;;;14.40;99.90;;;;;;5089761;28;20024;-73
2022/07/01 02:20:58;;;;;;;6.82;3.47;;;14.40;99.90;;;;;;5086403;28;20498;-73
2022/07/01 02:23:24;;;;;;;10.80;3.85;;;14.40;99.90;;;;;;5081371;28;20101;-74
2022/07/01 02:25:50;;;;;;;7.38;3.55;;;14.40;99.90;;;;;;5087664;28;20024;-73
2022/07/01 02:28:16;;;;;;;7.57;3.45;;;14.40;99.90;;;;;;5084643;28;20028;-73
2022/07/01 02:30:42;;;;;;;8.10;4.18;;;14.40;99.90;;;;;;5090077;28;20373;-72
2022/07/01 02:33:09;;;;;;;8.93;3.67;;;14.40;99.90;;;;;;5089024;28;20563;-73
2022/07/01 02:35:36;;;;;;;14.80;3.75;;;14.40;99.90;;;;;;5096205;28;20093;-72
2022/07/01 02:38:03;;;;;;;8.35;3.22;;;14.40;99.90;;;;;;5093495;28;20048;-73
2022/07/01 02:40:29;;;;;;;8.30;3.45;;;14.40;99.90;;;;;;5094371;28;20024;-72
2022/07/01 02:42:55;;;;;;;8.40;3.35;;;14.40;99.90;;;;;;5096668;28;20027;-73
2022/07/01 02:45:21;;;;;;;10.07;3.40;;;14.40;99.90;;;;;;5095943;28;20023;-73
2022/07/01 02:47:47;;;;;;;8.00;3.42;;;14.40;99.90;;;;;;5097381;28;20020;-73
2022/07/01 02:50:14;;;;;;;9.73;3.50;;;14.40;99.90;;;;;;5081585;28;20520;-73
2022/07/01 02:52:42;;;;;;;7.68;3.72;;;14.40;99.90;;;;;;5080296;28;20385;-73
2022/07/01 02:55:12;;;;;;;11.52;3.50;;;14.40;99.90;;;;;;5083901;28;20078;-72
2022/07/01 02:57:38;;;;;;;11.82;4.10;;;14.40;99.90;;;;;;5082075;28;20021;-73
2022/07/01 03:00:06;;;;;;;6.68;3.97;;;14.40;99.90;;;;;;5085938;28;20024;-73
2022/07/01 03:02:33;;;;;;;11.15;3.15;;;14.50;99.90;;;;;;5091946;28;20024;-72
2022/07/01 03:05:00;;;;;;;6.35;3.40;;;14.40;99.90;;;;;;5094654;28;20038;-72
2022/07/01 03:07:26;;;;;;;7.68;3.60;;;14.50;99.90;;;;;;5089930;28;20020;-73
2022/07/01 03:09:52;;;;;;;7.45;3.75;;;14.50;99.90;;;;;;5091535;28;20024;-73
2022/07/01 03:12:34;;;;;;;9.60;3.33;;;14.40;99.90;;;;;;5085814;28;20081;-73
2022/07/01 03:15:12;;;;;;;8.82;3.20;;;14.50;99.90;;;;;;5081296;28;20181;-73
2022/07/01 03:17:40;;;;;;;7.40;3.08;;;14.40;99.90;;;;;;5087666;28;20542;-72
2022/07/01 03:20:14;;;;;;;12.13;4.40;;;14.40;99.90;;;;;;5083039;28;20166;-73
2022/07/01 03:22:41;;;;;;;14.30;4.50;;;14.40;99.90;;;;;;5088702;28;20456;-73
2022/07/01 03:25:08;;;;;;;5.78;3.92;;;14.40;99.90;;;;;;5085160;28;20155;-73
2022/07/01 03:27:34;;;;;;;7.38;3.55;;;14.40;99.90;;;;;;5090556;28;20480;-73
2022/07/01 03:30:01;;;;;;;8.48;3.97;;;14.40;99.90;;;;;;5089096;28;20050;-73
2022/07/01 03:32:26;;;;;;;9.88;3.33;;;14.40;99.90;;;;;;5092139;28;20903;-73
2022/07/01 03:34:53;;;;;;;9.10;3.80;;;14.40;99.90;;;;;;5094197;28;20020;-73
2022/07/01 03:37:21;;;;;;;8.82;3.65;;;14.40;99.90;;;;;;5096046;28;20373;-73
2022/07/01 03:39:47;;;;;;;11.57;3.55;;;14.40;99.90;;;;;;5097349;28;20023;-73
2022/07/01 03:42:13;;;;;;;10.00;3.85;;;14.40;99.90;;;;;;5089493;28;20111;-73
2022/07/01 03:44:39;;;;;;;6.07;3.17;;;14.30;99.90;;;;;;5076620;28;20020;-73
2022/07/01 03:47:05;;;;;;;6.10;3.10;;;14.30;99.90;;;;;;5080156;28;20049;-73
2022/07/01 03:49:32;;;;;;;8.35;3.63;;;14.30;99.90;;;;;;5078455;28;20103;-73
2022/07/01 03:51:59;;;;;;;7.30;3.70;;;14.30;99.90;;;;;;5084175;28;20020;-73
2022/07/01 03:54:30;;;;;;;4.88;3.38;;;14.30;99.90;;;;;;5080603;28;20473;-73
2022/07/01 03:57:00;;;;;;;7.38;3.58;;;14.30;99.90;;;;;;5082862;28;20103;-73
2022/07/01 03:59:27;;;;;;;12.80;4.35;;;14.30;99.90;;;;;;5084571;28;20024;-73
2022/07/01 04:01:54;;;;;;;6.68;3.10;;;14.30;99.90;;;;;;5091643;28;20543;-73
2022/07/01 04:04:21;;;;;;;9.18;3.67;;;14.30;99.90;;;;;;5097523;28;20036;-73
2022/07/01 04:06:47;;;;;;;10.15;3.40;;;14.30;99.90;;;;;;5091791;28;20051;-73
2022/07/01 04:09:16;;;;;;;9.52;3.70;;;14.30;99.90;;;;;;5083819;28;20012;-73
2022/07/01 04:11:43;;;;;;;5.55;3.22;;;14.20;99.90;;;;;;5089895;28;20029;-73
2022/07/01 04:14:09;;;;;;;9.30;3.63;;;14.20;99.90;;;;;;5077927;28;20059;-73
2022/07/01 04:16:36;;;;;;;6.88;3.25;;;14.20;99.90;;;;;;5087086;28;20472;-73
2022/07/01 04:19:02;;;;;;;7.85;3.22;;;14.10;99.90;;;;;;5091465;28;20499;-73
2022/07/01 04:24:33;;;;;;;9.10;3.50;;;14.00;99.90;;;;;;5054245;28;20112;-73
2022/07/01 04:27:00;;;;;;;8.93;3.72;;;13.90;99.90;;;;;;5054448;28;20056;-73
2022/07/01 04:29:25;;;;;;;9.15;3.55;;;13.90;99.90;;;;;;5074834;28;20119;-73
2022/07/01 04:31:51;;;;;;;9.70;3.88;;;13.80;99.90;;;;;;5086497;28;20485;-73
2022/07/01 04:34:18;;;;;;;6.35;3.35;;;13.80;99.90;;;;;;5092444;28;20024;-73
2022/07/01 04:36:44;;;;;;;9.63;3.72;;;13.70;99.90;;;;;;5092500;28;20016;-73
2022/07/01 04:39:10;;;;;;;11.50;3.78;;;13.70;99.90;;;;;;5095718;28;20488;-73
2022/07/01 04:44:20;;;;;;;5.95;4.25;;;13.60;99.90;;;;;;5091834;28;20074;-73
2022/07/01 04:46:46;;;;;;;7.95;3.95;;;13.70;99.90;;;;;;5083020;28;20016;-73
2022/07/01 04:49:12;;;;;;;13.18;4.28;;;13.70;99.90;;;;;;5084011;28;20491;-73
2022/07/01 04:51:38;;;;;;;4.63;3.65;;;13.70;99.90;;;;;;5087742;28;20056;-73
2022/07/01 04:54:05;;;;;;;11.98;4.13;;;13.80;99.90;;;;;;5086592;28;20031;-73
2022/07/01 04:56:33;;;;;;;10.80;3.95;;;13.90;99.90;;;;;;5089939;28;20020;-73
2022/07/01 04:58:59;;;;;;;10.90;4.30;;;13.90;99.90;;;;;;5089681;28;20103;-73
2022/07/01 05:01:25;;;;;;;9.70;4.32;;;14.00;99.90;;;;;;5097499;28;20388;-73
2022/07/01 05:03:51;;;;;;;13.52;3.40;;;14.10;99.90;;;;;;5096938;28;20021;-73
2022/07/01 05:06:17;;;;;;;9.45;3.97;;;14.20;99.90;;;;;;5093631;28;20024;-73
2022/07/01 05:08:43;;;;;;;11.15;4.25;;;14.20;99.90;;;;;;5094157;28;20039;-73
2022/07/01 05:11:10;;;;;;;13.30;4.07;;;14.20;99.90;;;;;;5086279;28;20017;-74
2022/07/01 05:13:36;;;;;;;11.02;4.05;;;14.30;99.90;;;;;;5083177;28;20025;-73
2022/07/01 05:16:03;;;;;;;10.77;4.95;;;14.30;99.90;;;;;;5093053;28;20020;-73
2022/07/01 05:23:58;;;;;;;10.43;5.05;;;14.50;99.90;;;;;;5089850;28;20058;-73
2022/07/01 05:26:25;;;;;;;7.30;5.20;;;14.50;99.90;;;;;;5092007;28;20476;-73
2022/07/01 05:28:52;;;;;;;9.57;5.30;;;14.60;99.90;;;;;;5092542;28;20039;-73
2022/07/01 05:31:19;;;;;;;10.18;5.32;;;14.70;99.90;;;;;;5094477;28;20020;-73
2022/07/01 05:33:45;;;;;;;9.20;5.28;;;14.70;99.90;;;;;;5099992;28;20072;-73
2022/07/01 05:36:11;;;;;;;12.73;5.65;;;14.80;99.90;;;;;;5096228;28;20484;-73
2022/07/01 05:38:37;;;;;;;8.40;4.82;;;14.90;99.90;;;;;;5096389;28;20122;-73
2022/07/01 05:41:03;;;;;;;8.45;4.85;;;14.90;99.90;;;;;;5096234;28;20016;-73
2022/07/01 05:43:30;;;;;;;12.88;6.07;;;14.90;99.90;;;;;;5094376;28;20036;-73
2022/07/01 05:45:56;;;;;;;8.52;5.13;;;15.00;99.90;;;;;;5095053;28;20081;-73
2022/07/01 05:48:22;;;;;;;11.50;5.18;;;15.00;99.90;;;;;;5090087;28;20035;-73
2022/07/01 05:50:49;;;;;;;9.48;4.63;;;15.00;99.90;;;;;;5084639;28;20493;-73
2022/07/01 05:53:15;;;;;;;10.35;4.88;;;15.10;99.90;;;;;;5087244;28;20143;-73
2022/07/01 05:55:41;;;;;;;8.88;5.13;;;15.10;99.90;;;;;;5096363;28;20044;-73
2022/07/01 05:58:08;;;;;;;6.45;4.55;;;15.10;99.90;;;;;;5090327;28;20473;-73
2022/07/01 06:00:34;;;;;;;8.50;4.68;;;15.10;99.90;;;;;;5093176;28;20090;-73
2022/07/01 06:03:00;;;;;;;7.82;4.45;;;15.20;99.90;;;;;;5091267;28;20016;-74
2022/07/01 06:05:26;;;;;;;10.25;5.75;;;15.20;99.90;;;;;;5096466;28;20020;-73
2022/07/01 06:07:52;;;;;;;11.55;5.15;;;15.30;99.90;;;;;;5095326;28;20396;-74
2022/07/01 06:10:18;;;;;;;9.00;5.03;;;15.40;99.90;;;;;;5098718;28;20085;-74
2022/07/01 06:12:44;;;;;;;12.57;4.53;;;15.60;99.90;;;;;;5096037;28;20023;-73
2022/07/01 06:15:12;;;;;;;8.48;4.18;;;15.80;99.90;;;;;;5084265;28;20494;-74
2022/07/01 06:17:39;;;;;;;10.27;4.05;;;16.10;99.90;;;;;;5085306;28;20020;-73
2022/07/01 06:20:07;;;;;;;13.88;4.50;;;16.40;99.90;;;;;;5082522;28;20013;-74
2022/07/01 06:22:33;;;;;;;7.82;4.20;;;16.50;99.90;;;;;;5087065;28;20016;-73
2022/07/01 06:25:00;;;;;;;7.35;3.60;;;16.80;99.90;;;;;;5088159;28;20103;-74
2022/07/01 06:27:26;;;;;;;9.98;3.50;;;17.10;99.90;;;;;;5098865;28;20077;-73
2022/07/01 06:29:52;;;;;;;8.52;3.03;;;17.00;99.90;;;;;;5095157;28;20508;-73
2022/07/01 06:32:18;;;;;;;5.50;2.78;;;17.20;99.90;;;;;;5095775;28;20043;-73
2022/07/01 06:34:44;;;;;;;6.47;3.42;;;17.30;99.90;;;;;;5092984;28;20066;-73
2022/07/01 06:37:10;;;;;;;11.73;4.10;;;17.50;99.90;;;;;;5090013;28;20101;-74
2022/07/01 06:39:36;;;;;;;9.43;3.40;;;17.50;99.90;;;;;;5090431;28;20020;-74
2022/07/01 06:42:02;;;;;;;8.18;3.80;;;17.70;99.90;;;;;;5095768;28;20019;-73
2022/07/01 06:44:28;;;;;;;8.05;3.40;;;17.80;99.90;;;;;;5093330;28;20035;-73
2022/07/01 06:46:54;;;;;;;9.77;3.17;;;17.80;99.90;;;;;;5092169;28;20052;-73
2022/07/01 06:49:20;;;;;;;6.68;3.10;;;17.90;99.90;;;;;;5096727;28;20040;-73
2022/07/01 06:51:46;;;;;;;5.55;3.65;;;17.90;99.90;;;;;;5096147;28;20042;-73
2022/07/01 06:54:12;;;;;;;8.52;3.15;;;18.00;99.90;;;;;;5088243;28;20114;-73
2022/07/01 06:56:37;;;;;;;8.98;3.10;;;17.90;99.90;;;;;;5080526;28;20024;-73
2022/07/01 06:59:03;;;;;;;4.35;3.05;;;17.70;99.90;;;;;;5087075;28;20016;-73
2022/07/01 07:01:29;;;;;;;7.63;3.47;;;17.50;99.90;;;;;;5088050;28;20020;-73
2022/07/01 07:03:55;;;;;;;8.55;3.08;;;17.60;99.90;;;;;;5095650;28;20020;-73
2022/07/01 07:06:21;;;;;;;6.50;2.85;;;17.70;99.90;;;;;;5093667;28;20024;-73
2022/07/01 07:08:47;;;;;;;7.05;2.92;;;17.70;99.90;;;;;;5088844;28;20027;-74
2022/07/01 07:11:14;;;;;;;7.78;3.15;;;17.90;99.90;;;;;;5087829;28;20020;-73
2022/07/01 07:13:41;;;;;;;8.27;3.50;;;18.00;99.90;;;;;;5093747;28;20480;-73
2022/07/01 07:16:07;;;;;;;6.32;3.03;;;18.10;99.90;;;;;;5093595;28;20561;-73
2022/07/01 07:18:33;;;;;;;8.65;3.20;;;18.00;99.90;;;;;;5096405;28;20024;-74
2022/07/01 07:20:59;;;;;;;5.45;2.90;;;18.20;99.90;;;;;;5097754;28;20144;-74
2022/07/01 07:23:25;;;;;;;9.35;2.70;;;18.30;99.90;;;;;;5087311;28;20025;-74
2022/07/01 07:25:50;;;;;;;12.00;2.90;;;18.40;99.90;;;;;;5081036;28;20028;-73
2022/07/01 07:28:16;;;;;;;7.63;2.90;;;18.50;99.90;;;;;;5079959;28;20066;-73
2022/07/01 07:30:42;;;;;;;7.55;3.22;;;18.60;99.90;;;;;;5083062;28;20025;-73
2022/07/01 07:33:08;;;;;;;5.38;2.97;;;18.70;99.90;;;;;;5080818;28;20016;-74
2022/07/01 07:35:34;;;;;;;9.48;3.15;;;18.80;99.90;;;;;;5086863;28;20032;-73
2022/07/01 07:38:00;;;;;;;11.63;3.00;;;18.70;99.90;;;;;;5092809;28;20017;-74
2022/07/01 07:40:25;;;;;;;7.22;3.13;;;18.70;99.90;;;;;;5089117;28;20024;-74
2022/07/01 07:42:51;;;;;;;6.40;2.63;;;18.70;99.90;;;;;;5088928;28;20384;-73
2022/07/01 07:45:17;;;;;;;10.38;3.95;;;18.90;99.90;;;;;;5091871;28;20016;-73
2022/07/01 07:47:45;;;;;;;9.05;3.20;;;18.90;99.90;;;;;;5094305;28;20031;-74
2022/07/01 07:50:12;;;;;;;11.65;3.45;;;19.10;99.90;;;;;;5094059;28;20081;-74
2022/07/01 07:52:39;;;;;;;4.28;2.65;;;19.10;99.90;;;;;;5096836;28;20020;-74
2022/07/01 07:55:06;;;;;;;6.93;2.75;;;19.10;99.90;;;;;;5078856;28;20029;-74
2022/07/01 07:57:32;;;;;;;8.88;3.28;;;19.20;99.90;;;;;;5078229;28;20044;-73
2022/07/01 07:59:58;;;;;;;11.75;3.30;;;19.30;99.90;;;;;;5081393;28;20025;-74
2022/07/01 08:02:24;;;;;;;8.32;2.90;;;19.20;99.90;;;;;;5080508;28;20612;-75
2022/07/01 08:04:50;;;;;;;7.85;3.53;;;19.10;99.90;;;;;;5086113;28;20124;-73
2022/07/01 08:07:15;;;;;;;10.13;2.95;;;19.20;99.90;;;;;;5082617;28;20026;-74
2022/07/01 08:09:45;;;;;;;6.65;3.33;;;19.30;99.90;;;;;;5089033;28;20021;-73
2022/07/01 08:12:12;;;;;;;7.95;3.10;;;19.30;99.90;;;;;;5090094;28;20114;-74
2022/07/01 08:14:38;;;;;;;6.25;3.15;;;19.10;99.90;;;;;;5082501;28;20101;-73
2022/07/01 08:17:04;;;;;;;16.13;3.58;;;19.00;99.90;;;;;;5090636;28;20020;-73
2022/07/01 08:19:30;;;;;;;4.93;2.67;;;19.00;99.90;;;;;;5095608;28;20020;-73
2022/07/01 08:21:56;;;;;;;11.93;3.42;;;19.10;99.90;;;;;;5093209;28;20013;-74
2022/07/01 08:24:22;;;;;;;13.93;3.53;;;19.30;99.90;;;;;;5090204;28;20077;-74
2022/07/01 08:26:48;;;;;;;10.50;3.80;;;19.50;99.90;;;;;;5090501;28;20054;-73
2022/07/01 08:29:14;;;;;;;8.23;3.47;;;19.70;99.90;;;;;;5092994;28;20055;-73
2022/07/01 08:31:40;;;;;;;11.52;2.95;;;19.70;99.90;;;;;;5082207;28;20366;-73
2022/07/01 08:34:06;;;;;;;8.02;3.40;;;19.60;99.90;;;;;;5088116;28;20549;-73
2022/07/01 08:36:32;;;;;;;14.07;3.47;;;19.70;99.90;;;;;;5088525;28;20388;-73
2022/07/01 08:38:59;;;;;;;7.80;3.63;;;19.80;99.90;;;;;;5089279;28;20030;-74
2022/07/01 08:41:24;;;;;;;9.73;3.40;;;20.10;99.90;;;;;;5083193;28;20029;-73
2022/07/01 08:43:50;;;;;;;6.88;3.22;;;20.00;99.90;;;;;;5088458;28;20543;-73
2022/07/01 08:46:16;;;;;;;7.97;2.83;;;19.80;99.90;;;;;;5087654;28;20020;-75
2022/07/01 08:48:45;;;;;;;11.32;3.83;;;19.50;99.90;;;;;;5095869;28;20055;-73
2022/07/01 08:51:11;;;;;;;11.23;3.33;;;19.10;99.90;;;;;;5091300;28;20108;-75
2022/07/01 08:53:38;;;;;;;11.55;3.78;;;19.00;99.90;;;;;;5095706;28;20344;-72
2022/07/01 08:58:49;;;;;;;7.80;3.70;;;19.00;99.90;;;;;;5085294;28;20047;-73
2022/07/01 09:01:25;;;;;;;9.48;3.58;;;19.10;99.90;;;;;;5087190;28;20068;-75
2022/07/01 09:03:54;;;;;;;10.88;3.90;;;19.10;99.90;;;;;;5082184;28;20545;-73
2022/07/01 09:06:28;;;;;;;5.70;2.80;;;19.00;99.90;;;;;;5086113;28;20020;-73
2022/07/01 09:08:54;;;;;;;5.50;3.00;;;18.60;99.90;;;;;;5092451;28;20043;-73
2022/07/01 09:11:25;;;;;;;5.43;2.40;;;18.80;99.90;;;;;;5088664;28;20017;-73
2022/07/01 09:14:08;;;;;;;7.65;2.65;;;19.00;99.90;;;;;;5089591;28;20097;-73
2022/07/01 09:16:51;;;;;;;11.65;3.67;;;19.10;99.90;;;;;;5087129;28;20030;-73
2022/07/01 09:19:19;;;;;;;7.30;2.90;;;19.10;99.90;;;;;;5092255;28;20478;-73
2022/07/01 09:22:07;;;;;;;9.35;2.90;;;19.10;99.90;;;;;;5094296;28;20028;-73
2022/07/01 09:24:42;;;;;;;12.02;2.90;;;19.40;99.90;;;;;;5082788;28;20024;-75
2022/07/01 09:27:13;;;;;;;9.85;3.20;;;19.80;99.90;;;;;;5087248;28;20334;-74
2022/07/01 09:29:52;;;;;;;10.07;3.55;;;20.30;99.90;;;;;;5082452;28;20063;-74
2022/07/01 09:32:21;;;;;;;8.23;2.42;;;20.80;99.90;;;;;;5087041;28;20028;-74
2022/07/01 09:34:50;;;;;;;6.97;2.03;;;21.10;99.90;;;;;;5084452;28;20496;-74
2022/07/01 09:37:19;;;;;;;5.05;2.10;;;21.10;99.90;;;;;;5089331;28;20099;-74
2022/07/01 09:39:55;;;;;;;9.63;2.22;;;21.30;99.90;;;;;;5087537;28;20366;-74
2022/07/01 09:42:23;;;;;;;8.50;3.10;;;21.70;99.90;;;;;;5086131;28;20023;-74
2022/07/01 09:44:56;;;;;;;8.73;2.25;;;21.90;99.90;;;;;;5089287;28;20027;-74
2022/07/01 09:47:24;;;;;;;5.45;2.13;;;21.90;99.90;;;;;;5095559;28;20024;-74
2022/07/01 09:49:51;;;;;;;8.70;2.92;;;21.70;99.90;;;;;;5092533;28;20048;-73
2022/07/01 09:52:18;;;;;;;5.97;1.83;;;21.40;99.90;;;;;;5097418;28;20023;-73
2022/07/01 09:54:49;;;;;;;4.45;1.90;;;21.30;99.90;;;;;;5097205;28;20032;-74
2022/07/01 09:57:16;;;;;;;7.70;1.83;;;21.20;99.90;;;;;;5099114;28;20468;-74
2022/07/01 09:59:42;;;;;;;4.78;1.60;;;21.60;99.90;;;;;;5095011;28;20391;-75
2022/07/01 10:02:09;;;;;;;3.88;1.63;;;22.00;99.90;;;;;;5099348;28;20020;-74
2022/07/01 10:05:09;;;;;;;7.80;1.88;;;22.00;99.90;;;;;;5094740;28;20112;-74
2022/07/01 10:07:56;;;;;;;8.95;2.13;;;22.10;99.90;;;;;;5083262;28;20025;-73
2022/07/01 10:10:43;;;;;;;5.50;2.22;;;21.70;99.90;;;;;;5083241;28;20024;-76
2022/07/01 10:13:12;;;;;;;6.00;2.10;;;21.40;99.90;;;;;;5088249;28;20035;-73
2022/07/01 10:15:41;;;;;;;6.47;2.20;;;20.90;99.90;;;;;;5090992;28;20495;-75
2022/07/01 10:18:19;;;;;;;4.28;1.58;;;20.40;99.90;;;;;;5092958;28;20048;-73
2022/07/01 10:20:48;;;;;;;5.57;3.03;;;20.30;99.90;;;;;;5087545;28;20033;-74
2022/07/01 10:23:14;;;;;;;6.43;1.90;;;20.50;99.90;;;;;;5094511;28;20027;-74
2022/07/01 10:25:47;;;;;;;5.60;2.08;;;20.80;99.90;;;;;;5090801;28;20028;-74
2022/07/01 10:28:27;;;;;;;4.60;1.80;;;21.00;99.90;;;;;;5094663;28;20050;-72
2022/07/01 10:30:59;;;;;;;;;;;21.50;99.90;;;;;;5094203;28;20451;-74
2022/07/01 10:33:47;;;;;;;5.50;1.98;;;21.50;99.90;;;;;;5097688;28;20372;-74
2022/07/01 10:36:34;;;;;;;6.07;1.77;;;21.50;99.90;;;;;;5079354;28;20074;-73
2022/07/01 10:39:03;;;;;;;4.72;2.05;;;21.70;99.90;;;;;;5081600;28;20021;-74
2022/07/01 10:41:34;;;;;;;6.25;2.08;;;21.90;99.90;;;;;;5081747;28;20059;-74
2022/07/01 10:44:04;;;;;;;5.15;1.98;;;22.10;99.90;;;;;;5081797;28;20028;-75
2022/07/01 10:46:40;;;;;;;;;;;22.30;99.90;;;;;;5083710;28;20112;-74
2022/07/01 10:49:12;;;;;;;3.97;1.90;;;22.50;99.90;;;;;;5088998;28;19943;-74
2022/07/01 10:51:55;;;;;;;3.95;2.17;;;22.80;99.90;;;;;;5088861;28;20052;-75
2022/07/01 10:54:36;;;;;;;6.28;2.05;;;23.00;99.90;;;;;;5092037;28;20031;-74
2022/07/01 10:59:45;;;;;;;4.85;1.60;;;22.80;99.90;;;;;;5092367;28;20036;-74
2022/07/01 11:02:31;;;;;;;8.25;2.08;;;23.00;99.90;;;;;;5095536;28;20497;-73
2022/07/01 11:05:01;;;;;;;5.60;2.58;;;22.70;99.90;;;;;;5085259;28;20036;-73
2022/07/01 11:07:28;;;;;;;6.53;1.77;;;22.60;99.90;;;;;;5084056;28;20488;-75
2022/07/01 11:09:55;;;;;;;5.43;1.80;;;22.30;99.90;;;;;;5091670;28;20111;-74
2022/07/01 11:12:25;;;;;;;6.22;1.80;;;22.30;99.90;;;;;;5081888;28;20082;-74
2022/07/01 11:14:52;;;;;;;6.85;2.00;;;22.30;99.90;;;;;;5084744;28;20027;-73
2022/07/01 11:17:20;;;;;;;5.85;1.90;;;22.20;99.90;;;;;;5089742;28;20036;-75
2022/07/01 11:19:54;;;;;;;6.28;1.90;;;22.00;99.90;;;;;;5088739;28;20020;-74
2022/07/01 11:22:21;;;;;;;5.10;1.80;;;22.00;99.90;;;;;;5087597;28;20020;-73
2022/07/01 11:24:52;;;;;;;9.82;1.85;;;22.00;99.90;;;;;;5091355;28;20031;-74
2022/07/01 11:27:18;;;;;;;5.00;1.90;;;21.90;99.90;;;;;;5089674;28;20016;-74
2022/07/01 11:29:44;;;;;;;6.93;2.00;;;21.70;99.90;;;;;;5094097;28;20036;-75
2022/07/01 11:32:10;;;;;;;7.85;1.75;;;21.60;99.90;;;;;;5091512;28;20411;-74
2022/07/01 11:34:37;;;;;;;7.40;2.05;;;21.60;99.90;;;;;;5095878;28;20031;-74
2022/07/01 11:40:06;;;;;;;5.22;1.60;;;21.80;99.90;;;;;;5098015;28;20051;-73
2022/07/01 11:42:33;;;;;;;4.18;1.60;;;22.10;99.90;;;;;;5090444;28;20031;-72
2022/07/01 11:44:58;;;;;;;7.80;2.20;;;22.40;99.90;;;;;;5080887;28;20070;-75
2022/07/01 11:47:25;;;;;;;6.70;2.10;;;22.50;99.90;;;;;;5087805;28;20025;-74
2022/07/01 11:49:52;;;;;;;3.50;1.83;;;22.50;99.30;;;;;;5094558;28;20036;-75
2022/07/01 11:52:19;;;;;;;8.45;2.03;;;22.40;99.00;;;;;;5091476;28;20051;-73
2022/07/01 11:54:47;;;;;;;5.25;2.00;;;22.40;99.90;;;;;;5085592;28;20481;-73
2022/07/01 11:57:16;;;;;;;3.22;1.50;;;22.40;99.90;;;;;;5088609;28;20480;-73
2022/07/01 11:59:43;;;;;;;7.05;2.42;;;22.40;99.90;;;;;;5078321;28;20027;-73
2022/07/01 12:02:11;;;;;;;4.93;1.58;;;22.40;99.40;;;;;;5079653;28;20537;-72
2022/07/01 12:04:37;;;;;;;6.60;2.05;;;22.30;99.50;;;;;;5093766;28;20553;-73
2022/07/01 12:07:04;;;;;;;6.80;1.90;;;22.40;99.60;;;;;;5081613;28;20465;-73
2022/07/01 12:09:30;;;;;;;4.88;1.70;;;22.70;99.90;;;;;;5085461;28;20541;-73
2022/07/01 12:11:57;;;;;;;5.43;1.50;;;23.10;99.90;;;;;;5085126;28;20016;-73
2022/07/01 12:14:23;;;;;;;4.45;1.65;;;23.30;99.90;;;;;;5087213;28;20027;-73
2022/07/01 12:16:56;;;;;;;4.05;1.55;;;23.40;99.70;;;;;;5088926;28;20032;-73
2022/07/01 12:19:36;;;;;;;5.03;1.75;;;23.30;99.80;;;;;;5090130;28;20511;-76
2022/07/01 12:22:07;;;;;;;6.07;1.50;;;22.80;96.90;;;;;;5093973;28;20045;-76
2022/07/01 12:24:33;;;;;;;;;;;22.70;97.60;;;;;;5083378;28;20069;-73
2022/07/01 12:26:59;;;;;;;9.45;3.38;;;22.50;98.20;;;;;;5094295;28;19995;-73
2022/07/01 12:29:29;;;;;;;5.13;1.80;;;22.60;98.70;;;;;;5097160;28;20030;-73
2022/07/01 12:32:05;;;;;;;3.80;1.45;;;22.90;96.60;;;;;;5082784;28;20036;-73
2022/07/01 12:34:48;;;;;;;6.25;1.67;;;23.40;96.60;;;;;;5078933;28;20489;-73
2022/07/01 12:37:26;;;;;;;7.15;2.10;;;23.60;94.20;;;;;;5082847;28;20028;-76
2022/07/01 12:39:56;;;;;;;2.13;1.27;;;23.60;93.70;;;;;;5080791;28;20021;-74
2022/07/01 12:42:31;;;;;;;3.97;1.73;;;23.50;94.80;;;;;;5080394;28;20042;-74
2022/07/01 12:45:02;;;;;;;3.60;1.45;;;23.50;94.80;;;;;;5083551;28;20052;-74
2022/07/01 12:47:32;;;;;;;4.55;1.40;;;23.60;97.80;;;;;;5087523;28;20028;-74
2022/07/01 12:50:10;;;;;;;5.05;1.63;;;23.80;97.20;;;;;;5086383;28;20045;-75
2022/07/01 12:52:37;;;;;;;8.68;1.70;;;23.80;97.60;;;;;;5088970;28;20020;-74
2022/07/01 12:55:17;;;;;;;2.80;1.42;;;23.90;97.40;;;;;;5093343;28;20024;-74
2022/07/01 12:57:43;;;;;;;6.30;1.30;;;24.10;96.90;;;;;;5092396;28;20024;-74
2022/07/01 13:00:09;;;;;;;3.33;1.42;;;24.00;94.10;;;;;;5094400;28;20016;-74
2022/07/01 13:02:35;;;;;;;7.90;1.35;;;24.00;95.10;;;;;;5099895;28;20571;-74
2022/07/01 13:05:01;;;;;;;3.40;1.15;;;24.00;94.40;;;;;;5094933;28;20044;-74
2022/07/01 13:07:26;;;;;;;2.47;1.20;;;23.90;93.60;;;;;;5081515;28;20014;-73
2022/07/01 13:09:52;;;;;;;4.22;1.60;;;23.70;96.00;;;;;;5082393;28;20027;-74